Archival Weather

Granbury Rgnl

Granbury, Texas (KGDJ)

Report from: Monday, January 29, 2024 5:55 AM UTC
Current time: Tuesday, June 18, 2024 11:13 AM UTC

Current weather – Weather history – Daily summaries
Weather forecast

Temperature4.9°C (40.8°F)
Dew point2.0°C (35.6°F)
Winds Calm
Visibility10 mi. (16.1 km)
Clouds Sky clear
Altimeter30.35 in.Hg (1028 mB)
Relative humidity81 %
Density altitude-1,608 ft. (-490 m)
Max temp last 6 hours16.2°C (61.2°F)
Min temp last 6 hours4.5°C (40.1°F)
Max temp last 24 hours17.7°C (63.9°F)
Min temp last 24 hours0.6°C (33.1°F)
Remarks Fully automated report
Automated weather observing station with precipitation discriminator
Flight conditions Visual Meteorological Conditions
Raw dataKGDJ 290555Z AUTO 00000KT 10SM CLR 05/02 A3035 RMK AO2 T00490020 10162 20045 401770006
An error has occurred. This application may no longer respond until reloaded. Reload 🗙